Cape Horn, California
Current Conditions -  °F | °C
As of 2:40 AM on Friday 24 Oct 2014 (Local Time) from KGOO Reporting Station
Clear Clear  
Wind Chill: 57°   Ceiling: Unl
Heat Index: 57°   Visibility: 10mi
Dew Point: 39°   Wind: 7mph
Humidity: 51%   Direction: 120°ESE
Pressure: 30.05"   Gusts: NA
Location:  39.0937°N, 120.92°W
Report Text: KGOO 240940Z AUTO 12006KT 10SM CLR 14/04 A3005 RMK AO1
Loading
Personal Weather Stations






























Interactive Weather Map
Tropical Storm Tracking
New forecast layout! Learn more

10-Day Weather Forecast

Advertisements
Track Severe Weather on mobile